createdAt,value
2024-02-17T00:00:21.397Z,2.00
2024-02-17T00:00:53.423Z,2.00
2024-02-17T00:01:25.483Z,2.00
2024-02-17T00:01:57.452Z,2.00
2024-02-17T00:02:29.682Z,2.00
2024-02-17T00:03:02.536Z,2.00
2024-02-17T00:03:34.625Z,2.00
2024-02-17T00:04:06.783Z,2.00
2024-02-17T00:04:38.794Z,2.00
2024-02-17T00:05:10.888Z,2.00
2024-02-17T00:05:43.082Z,2.00
2024-02-17T00:06:15.121Z,2.00
2024-02-17T00:06:47.083Z,2.00
2024-02-17T00:07:19.060Z,2.00
2024-02-17T00:07:51.159Z,2.00
2024-02-17T00:08:51.867Z,2.00
2024-02-17T00:09:23.826Z,2.00
2024-02-17T00:09:55.734Z,2.00
2024-02-17T00:10:27.678Z,2.00
2024-02-17T00:10:59.690Z,2.00
2024-02-17T00:11:31.649Z,2.00
2024-02-17T00:12:03.761Z,2.00
2024-02-17T00:12:36.156Z,2.00
2024-02-17T00:13:08.121Z,2.00
2024-02-17T00:13:40.069Z,2.00
2024-02-17T00:14:12.042Z,2.00
2024-02-17T00:14:43.985Z,2.00
2024-02-17T00:15:16.144Z,2.00
2024-02-17T00:15:48.371Z,2.00
2024-02-17T00:16:20.801Z,3.00
2024-02-17T00:16:53.066Z,3.00
2024-02-17T00:17:24.970Z,3.00
2024-02-17T00:17:57.051Z,3.00
2024-02-17T00:18:30.376Z,3.00
2024-02-17T00:19:02.584Z,3.00
2024-02-17T00:19:34.782Z,3.00
2024-02-17T00:20:08.679Z,3.00
2024-02-17T00:20:41.007Z,3.00
2024-02-17T00:21:12.976Z,3.00
2024-02-17T00:21:45.034Z,3.00
2024-02-17T00:22:17.906Z,3.00
2024-02-17T00:22:51.211Z,3.00
2024-02-17T00:23:23.249Z,3.00
2024-02-17T00:23:55.245Z,3.00
2024-02-17T00:24:27.330Z,3.00
2024-02-17T00:24:59.280Z,3.00
2024-02-17T00:25:31.186Z,3.00
2024-02-17T00:26:03.133Z,3.00
2024-02-17T00:26:35.112Z,3.00
2024-02-17T00:27:07.141Z,3.00
2024-02-17T00:27:39.089Z,3.00
2024-02-17T00:28:10.951Z,3.00
2024-02-17T00:28:43.129Z,3.00
2024-02-17T00:29:16.659Z,3.00
2024-02-17T00:29:48.679Z,3.00
2024-02-17T00:30:22.153Z,3.00
2024-02-17T00:30:55.038Z,3.00
2024-02-17T00:31:26.961Z,3.00
2024-02-17T00:31:58.854Z,3.00
2024-02-17T00:32:30.741Z,3.00
2024-02-17T00:33:04.951Z,3.00
2024-02-17T00:33:40.224Z,3.67
2024-02-17T00:34:12.946Z,4.00
2024-02-17T00:34:45.084Z,4.00
2024-02-17T00:35:17.284Z,4.00
2024-02-17T00:35:49.226Z,4.00
2024-02-17T00:36:21.197Z,4.00
2024-02-17T00:36:53.181Z,4.00
2024-02-17T00:37:25.076Z,4.00
2024-02-17T00:37:56.956Z,4.00
2024-02-17T00:38:28.816Z,4.00
2024-02-17T00:39:00.699Z,4.00
2024-02-17T00:39:32.713Z,4.00
2024-02-17T00:40:07.181Z,4.00
2024-02-17T00:40:40.737Z,4.00
2024-02-17T00:41:12.678Z,4.00
2024-02-17T00:41:45.555Z,4.00
2024-02-17T00:42:17.437Z,4.00
2024-02-17T00:42:49.525Z,4.00
2024-02-17T00:43:23.298Z,4.00
2024-02-17T00:43:55.279Z,4.00
2024-02-17T00:44:27.257Z,4.00
2024-02-17T00:44:59.366Z,4.00
2024-02-17T00:45:31.448Z,4.00
2024-02-17T00:46:03.847Z,4.00
2024-02-17T00:46:35.849Z,4.00
2024-02-17T00:47:07.943Z,4.00
2024-02-17T00:47:39.876Z,4.00
2024-02-17T00:48:11.901Z,4.00
2024-02-17T00:48:44.006Z,4.00
2024-02-17T00:49:16.187Z,4.00
2024-02-17T00:49:48.477Z,4.00
2024-02-17T00:50:20.674Z,4.00
2024-02-17T00:51:01.906Z,4.00
2024-02-17T00:51:40.629Z,4.00
2024-02-17T00:52:12.709Z,4.00
2024-02-17T00:52:44.793Z,4.00
2024-02-17T00:53:16.668Z,4.00
2024-02-17T00:53:48.670Z,4.00
2024-02-17T00:54:20.683Z,4.00
2024-02-17T00:54:52.680Z,4.00
2024-02-17T00:55:24.783Z,4.00
2024-02-17T00:55:57.500Z,4.00
2024-02-17T00:56:29.380Z,4.00
2024-02-17T00:57:01.336Z,4.00
2024-02-17T00:57:33.339Z,4.00
2024-02-17T00:58:05.415Z,4.00
2024-02-17T00:58:37.402Z,4.00
2024-02-17T00:59:09.358Z,4.00
2024-02-17T00:59:41.248Z,4.00
2024-02-17T01:00:14.305Z,4.00
2024-02-17T01:00:46.236Z,4.00
2024-02-17T01:01:26.012Z,4.00
2024-02-17T01:02:02.602Z,3.67
2024-02-17T01:02:34.518Z,3.00
2024-02-17T01:03:06.412Z,3.00
2024-02-17T01:03:38.448Z,3.00
2024-02-17T01:04:10.680Z,3.00
2024-02-17T01:04:42.642Z,3.00
2024-02-17T01:05:14.668Z,3.00
2024-02-17T01:05:46.661Z,3.00
2024-02-17T01:06:18.756Z,3.00
2024-02-17T01:06:50.868Z,3.00
2024-02-17T01:07:22.963Z,3.00
2024-02-17T01:07:54.986Z,3.00
2024-02-17T01:08:37.858Z,3.00
2024-02-17T01:09:16.553Z,3.00
2024-02-17T01:09:48.551Z,3.00
2024-02-17T01:10:20.944Z,3.00
2024-02-17T01:10:53.098Z,3.00
2024-02-17T01:11:25.089Z,3.00
2024-02-17T01:11:57.053Z,3.00
2024-02-17T01:12:28.947Z,3.00
2024-02-17T01:13:00.849Z,3.00
2024-02-17T01:13:32.776Z,3.00
2024-02-17T01:14:04.733Z,3.00
2024-02-17T01:14:36.660Z,3.00
2024-02-17T01:15:09.455Z,3.00
2024-02-17T01:15:41.377Z,3.00
2024-02-17T01:16:13.329Z,3.00
2024-02-17T01:16:45.224Z,3.00
2024-02-17T01:17:17.160Z,3.00
2024-02-17T01:17:49.344Z,3.00
2024-02-17T01:18:21.480Z,3.00
2024-02-17T01:18:56.087Z,3.00
2024-02-17T01:19:28.338Z,3.00
2024-02-17T01:20:00.531Z,3.00
2024-02-17T01:20:32.531Z,3.00
2024-02-17T01:21:04.456Z,3.00
2024-02-17T01:21:36.893Z,3.00
2024-02-17T01:22:10.062Z,3.00
2024-02-17T01:22:42.396Z,3.00
2024-02-17T01:23:14.314Z,3.00
2024-02-17T01:23:46.260Z,3.00
2024-02-17T01:24:18.311Z,3.00
2024-02-17T01:24:50.353Z,3.00
2024-02-17T01:25:23.643Z,3.00
2024-02-17T01:25:56.706Z,3.00
2024-02-17T01:26:29.784Z,3.00
2024-02-17T01:27:01.789Z,3.00
2024-02-17T01:27:33.857Z,3.00
2024-02-17T01:28:06.694Z,3.00
2024-02-17T01:28:38.680Z,3.00
2024-02-17T01:29:11.100Z,3.00
2024-02-17T01:29:43.646Z,3.00
2024-02-17T01:30:15.629Z,3.00
2024-02-17T01:30:47.685Z,3.00
2024-02-17T01:31:19.641Z,3.00
2024-02-17T01:31:52.907Z,3.00
2024-02-17T01:32:24.875Z,3.00
2024-02-17T01:32:56.924Z,3.00
2024-02-17T01:33:28.975Z,3.00
2024-02-17T01:34:00.942Z,3.00
2024-02-17T01:34:32.845Z,3.00
2024-02-17T01:35:05.093Z,3.00
2024-02-17T01:35:37.050Z,3.00
2024-02-17T01:36:18.597Z,3.00
2024-02-17T01:36:51.575Z,3.00
2024-02-17T01:37:23.588Z,3.00
2024-02-17T01:37:55.556Z,3.00
2024-02-17T01:38:27.565Z,3.00
2024-02-17T01:38:59.549Z,3.00
2024-02-17T01:39:31.495Z,3.00
2024-02-17T01:40:03.525Z,3.00
2024-02-17T01:41:10.450Z,3.00
2024-02-17T01:41:42.363Z,3.00
2024-02-17T01:42:14.303Z,3.00
2024-02-17T01:42:46.345Z,3.00
2024-02-17T01:43:18.321Z,3.00
2024-02-17T01:43:50.188Z,3.00
2024-02-17T01:44:22.115Z,3.00
2024-02-17T01:44:54.088Z,3.00
2024-02-17T01:45:26.552Z,3.00
2024-02-17T01:45:58.638Z,2.33
2024-02-17T01:46:30.950Z,2.00
2024-02-17T01:47:03.716Z,2.00
2024-02-17T01:47:35.886Z,2.00
2024-02-17T01:48:08.621Z,2.00
2024-02-17T01:48:42.394Z,2.00
2024-02-17T01:49:16.112Z,2.00
2024-02-17T01:49:48.747Z,2.00
2024-02-17T01:50:21.504Z,2.00
2024-02-17T01:50:53.553Z,2.00
2024-02-17T01:51:27.111Z,2.00
2024-02-17T01:52:01.697Z,2.00
2024-02-17T01:52:36.227Z,2.00
2024-02-17T01:53:09.985Z,2.00
2024-02-17T01:53:43.740Z,2.00
2024-02-17T01:54:17.628Z,2.00
2024-02-17T01:54:49.973Z,2.00
2024-02-17T01:55:23.364Z,2.00
2024-02-17T01:55:55.473Z,2.00
2024-02-17T01:56:27.950Z,2.00
2024-02-17T01:57:01.755Z,2.00
2024-02-17T01:57:34.650Z,2.00
2024-02-17T01:58:06.696Z,2.00
2024-02-17T01:58:38.963Z,2.00
2024-02-17T01:59:11.104Z,2.00
2024-02-17T01:59:44.546Z,2.00
2024-02-17T02:00:17.836Z,2.00
2024-02-17T02:00:50.708Z,2.00
2024-02-17T02:01:22.770Z,2.00
2024-02-17T02:01:56.522Z,2.00
2024-02-17T02:02:29.109Z,2.00
2024-02-17T02:03:02.052Z,2.00
2024-02-17T02:03:34.373Z,2.00
2024-02-17T02:04:06.602Z,2.00
2024-02-17T02:04:38.697Z,2.00
2024-02-17T02:05:11.273Z,2.00
2024-02-17T02:05:44.160Z,2.00
2024-02-17T02:06:21.648Z,2.00
2024-02-17T02:06:53.749Z,2.00
2024-02-17T02:07:25.767Z,2.00
2024-02-17T02:07:57.847Z,2.00
2024-02-17T02:08:55.230Z,2.00
2024-02-17T02:09:28.072Z,2.00
2024-02-17T02:10:00.179Z,2.00
2024-02-17T02:10:32.178Z,2.00
2024-02-17T02:11:05.271Z,2.00
2024-02-17T02:11:39.860Z,2.00
2024-02-17T02:12:11.816Z,2.33
2024-02-17T02:12:43.936Z,3.00
2024-02-17T02:13:16.097Z,3.00
2024-02-17T02:13:48.419Z,3.00
2024-02-17T02:14:21.235Z,3.00
2024-02-17T02:15:12.195Z,3.00
2024-02-17T02:15:53.008Z,3.00
2024-02-17T02:16:26.720Z,3.00
2024-02-17T02:16:58.998Z,3.00
2024-02-17T02:17:31.040Z,3.00
2024-02-17T02:18:03.181Z,3.00
2024-02-17T02:18:35.314Z,3.00
2024-02-17T02:19:08.188Z,3.00
2024-02-17T02:19:40.243Z,3.00
2024-02-17T02:20:13.201Z,3.00
2024-02-17T02:20:45.702Z,3.00
2024-02-17T02:21:17.897Z,3.00
2024-02-17T02:21:49.915Z,3.00
2024-02-17T02:22:21.889Z,3.00
2024-02-17T02:22:53.855Z,3.00
2024-02-17T02:23:25.903Z,3.00
2024-02-17T02:23:57.885Z,3.00
2024-02-17T02:24:30.767Z,3.00
2024-02-17T02:25:07.173Z,3.00
2024-02-17T02:25:43.803Z,3.00
2024-02-17T02:26:15.899Z,3.00
2024-02-17T02:26:47.826Z,3.00
2024-02-17T02:27:19.785Z,3.00
2024-02-17T02:27:53.242Z,3.00
2024-02-17T02:28:25.952Z,3.00
2024-02-17T02:29:01.220Z,3.00
2024-02-17T02:29:33.369Z,3.00
2024-02-17T02:30:06.011Z,3.00
2024-02-17T02:30:38.209Z,3.00
2024-02-17T02:31:10.247Z,3.00
2024-02-17T02:31:42.184Z,3.00
2024-02-17T02:32:14.191Z,3.00
2024-02-17T02:32:46.271Z,3.00
2024-02-17T02:33:18.433Z,3.00
2024-02-17T02:33:55.319Z,3.00
2024-02-17T02:34:27.409Z,3.00
2024-02-17T02:35:00.563Z,3.00
2024-02-17T02:35:32.680Z,3.00
2024-02-17T02:36:04.716Z,3.00
2024-02-17T02:36:36.692Z,3.00
2024-02-17T02:37:08.759Z,3.00
2024-02-17T02:37:40.710Z,3.33
2024-02-17T02:38:12.770Z,4.00
2024-02-17T02:38:46.186Z,4.00
2024-02-17T02:39:18.066Z,4.00
2024-02-17T02:39:50.132Z,4.00
2024-02-17T02:40:22.016Z,4.00
2024-02-17T02:41:03.797Z,4.00
2024-02-17T02:41:35.676Z,4.00
2024-02-17T02:42:07.694Z,4.00
2024-02-17T02:42:40.958Z,4.00
2024-02-17T02:43:12.956Z,4.00
2024-02-17T02:43:45.807Z,4.00
2024-02-17T02:44:17.977Z,4.00
2024-02-17T02:44:49.871Z,4.00
2024-02-17T02:45:22.125Z,4.00
2024-02-17T02:45:54.300Z,4.00
2024-02-17T02:46:26.270Z,4.00
2024-02-17T02:46:58.183Z,4.00
2024-02-17T02:47:30.147Z,4.00
2024-02-17T02:48:02.160Z,4.00
2024-02-17T02:48:34.349Z,4.00
2024-02-17T02:49:06.377Z,4.00
2024-02-17T02:49:38.409Z,4.00
2024-02-17T02:50:12.268Z,4.00
2024-02-17T02:50:44.541Z,4.00
2024-02-17T02:51:18.280Z,4.00
2024-02-17T02:51:50.247Z,4.00
2024-02-17T02:52:22.214Z,4.00
2024-02-17T02:52:54.343Z,4.00
2024-02-17T02:53:26.653Z,4.00
2024-02-17T02:53:58.585Z,3.33
2024-02-17T02:54:30.762Z,3.00
2024-02-17T02:55:02.731Z,3.00
2024-02-17T02:55:34.708Z,3.00
2024-02-17T02:56:06.880Z,3.00
2024-02-17T02:56:38.780Z,3.00
2024-02-17T02:57:10.680Z,3.00
2024-02-17T02:57:42.700Z,3.00
2024-02-17T02:58:14.676Z,3.00
2024-02-17T02:58:46.604Z,3.00
2024-02-17T02:59:18.513Z,3.00
2024-02-17T02:59:51.718Z,3.00
2024-02-17T03:00:23.854Z,3.00
2024-02-17T03:00:55.930Z,3.00
2024-02-17T03:01:27.926Z,3.00
2024-02-17T03:01:59.849Z,3.00
2024-02-17T03:02:31.766Z,3.00
2024-02-17T03:03:04.063Z,3.00
2024-02-17T03:03:36.204Z,3.00
2024-02-17T03:04:08.233Z,3.00
2024-02-17T03:04:40.449Z,3.00
2024-02-17T03:05:12.485Z,3.00
2024-02-17T03:05:44.490Z,3.00
2024-02-17T03:06:16.666Z,3.00
2024-02-17T03:06:48.771Z,3.00
2024-02-17T03:07:20.937Z,3.00
2024-02-17T03:07:52.951Z,3.00
2024-02-17T03:08:24.868Z,2.33
2024-02-17T03:09:12.739Z,2.00
2024-02-17T03:09:45.040Z,2.00
2024-02-17T03:10:17.309Z,2.00
2024-02-17T03:10:49.303Z,2.00
2024-02-17T03:11:21.746Z,2.00
2024-02-17T03:11:53.795Z,2.00
2024-02-17T03:12:25.738Z,2.00
2024-02-17T03:12:58.050Z,2.00
2024-02-17T03:13:29.982Z,2.00
2024-02-17T03:14:02.117Z,2.00
2024-02-17T03:14:35.126Z,2.00
2024-02-17T03:15:07.681Z,2.00
2024-02-17T03:15:39.705Z,2.00
2024-02-17T03:16:11.930Z,2.00
2024-02-17T03:16:44.008Z,2.00
2024-02-17T03:17:17.846Z,2.00
2024-02-17T03:17:53.378Z,2.00
2024-02-17T03:18:25.381Z,2.00
2024-02-17T03:18:57.523Z,2.00
2024-02-17T03:19:30.582Z,2.00
2024-02-17T03:20:04.812Z,2.00
2024-02-17T03:20:36.856Z,2.00
2024-02-17T03:21:08.769Z,2.00
2024-02-17T03:21:41.958Z,2.00
2024-02-17T03:22:13.963Z,2.00
2024-02-17T03:22:46.639Z,2.00
2024-02-17T03:23:18.513Z,2.00
2024-02-17T03:23:50.411Z,2.00
2024-02-17T03:24:22.355Z,2.00
2024-02-17T03:24:54.575Z,2.00
2024-02-17T03:25:26.512Z,2.00
2024-02-17T03:25:58.434Z,2.00
2024-02-17T03:26:30.536Z,2.00
2024-02-17T03:27:02.504Z,2.00
2024-02-17T03:27:35.997Z,2.00
2024-02-17T03:28:08.224Z,2.00
2024-02-17T03:28:40.230Z,2.00
2024-02-17T03:29:12.100Z,2.00
2024-02-17T03:29:44.078Z,2.00
2024-02-17T03:30:16.155Z,2.00
2024-02-17T03:30:48.198Z,2.00
2024-02-17T03:31:20.151Z,2.00
2024-02-17T03:31:52.388Z,2.00
2024-02-17T03:32:25.253Z,2.00
2024-02-17T03:32:57.416Z,2.00
2024-02-17T03:33:30.200Z,2.00
2024-02-17T03:34:06.842Z,2.00
2024-02-17T03:34:40.916Z,2.00
2024-02-17T03:35:13.082Z,2.00
2024-02-17T03:35:44.970Z,2.00
2024-02-17T03:36:16.932Z,2.00
2024-02-17T03:36:49.046Z,2.00
2024-02-17T03:37:22.711Z,2.00
2024-02-17T03:37:54.782Z,2.00
2024-02-17T03:38:26.717Z,2.00
2024-02-17T03:38:58.678Z,2.00
2024-02-17T03:39:30.740Z,2.00
2024-02-17T03:40:04.086Z,2.00
2024-02-17T03:40:43.618Z,2.00
2024-02-17T03:41:16.668Z,2.00
2024-02-17T03:41:48.675Z,2.00
2024-02-17T03:42:20.758Z,2.00
2024-02-17T03:42:52.847Z,2.00
2024-02-17T03:43:24.987Z,2.00
2024-02-17T03:43:56.843Z,2.00
2024-02-17T03:44:28.781Z,2.00
2024-02-17T03:45:00.752Z,2.00
2024-02-17T03:45:32.862Z,2.00
2024-02-17T03:46:04.793Z,2.00
2024-02-17T03:46:36.778Z,2.00
2024-02-17T03:47:09.499Z,2.00
2024-02-17T03:47:41.504Z,1.67
2024-02-17T03:48:13.497Z,1.00
2024-02-17T03:48:45.697Z,1.00
2024-02-17T03:49:21.770Z,1.00
2024-02-17T03:49:53.938Z,1.00
2024-02-17T03:50:25.880Z,1.00
2024-02-17T03:50:57.799Z,1.00
2024-02-17T03:51:29.779Z,1.00
2024-02-17T03:52:01.998Z,1.00
2024-02-17T03:52:34.483Z,1.00
2024-02-17T03:53:06.422Z,1.00
2024-02-17T03:53:38.595Z,1.00
2024-02-17T03:54:10.560Z,1.00
2024-02-17T03:54:43.662Z,1.00
2024-02-17T03:55:15.737Z,1.00
2024-02-17T03:55:47.837Z,1.00
2024-02-17T03:56:19.856Z,1.00
2024-02-17T03:56:51.805Z,1.00
2024-02-17T03:57:24.886Z,1.00
2024-02-17T03:57:56.818Z,1.00
2024-02-17T03:58:28.910Z,1.00
2024-02-17T03:59:00.815Z,1.00
2024-02-17T03:59:33.074Z,1.00
2024-02-17T04:00:08.153Z,1.00
2024-02-17T04:00:40.269Z,1.00
2024-02-17T04:01:12.419Z,1.00
2024-02-17T04:01:44.484Z,1.00
2024-02-17T04:02:16.491Z,1.00
2024-02-17T04:02:48.467Z,1.00
2024-02-17T04:03:20.544Z,1.00
2024-02-17T04:03:52.505Z,1.00
2024-02-17T04:04:24.578Z,1.00
2024-02-17T04:04:56.595Z,1.00
2024-02-17T04:05:28.822Z,1.00
2024-02-17T04:06:01.015Z,1.00
2024-02-17T04:06:34.161Z,1.00
2024-02-17T04:07:06.265Z,1.00
2024-02-17T04:07:40.214Z,1.00
2024-02-17T04:08:12.398Z,1.00
2024-02-17T04:08:46.509Z,1.00
2024-02-17T04:09:37.521Z,1.00
2024-02-17T04:10:10.433Z,1.00
2024-02-17T04:10:43.339Z,1.00
2024-02-17T04:11:15.560Z,1.00
2024-02-17T04:11:47.573Z,1.00
2024-02-17T04:12:19.490Z,1.00
2024-02-17T04:12:51.543Z,1.00
2024-02-17T04:13:23.652Z,1.00
2024-02-17T04:13:58.576Z,1.00
2024-02-17T04:14:30.521Z,1.00
2024-02-17T04:15:02.417Z,1.00
2024-02-17T04:15:34.979Z,1.00
2024-02-17T04:16:07.147Z,1.00
2024-02-17T04:16:39.171Z,1.00
2024-02-17T04:17:11.109Z,1.00
2024-02-17T04:17:43.074Z,1.00
2024-02-17T04:18:15.127Z,1.00
2024-02-17T04:18:47.722Z,1.00
2024-02-17T04:19:20.546Z,1.00
2024-02-17T04:19:52.715Z,1.00
2024-02-17T04:20:24.843Z,1.00
2024-02-17T04:20:56.850Z,1.00
2024-02-17T04:21:29.164Z,1.00
2024-02-17T04:22:01.093Z,1.00
2024-02-17T04:22:33.021Z,1.00
2024-02-17T04:23:09.207Z,1.00
2024-02-17T04:23:41.236Z,1.00
2024-02-17T04:24:13.195Z,1.00
2024-02-17T04:24:46.380Z,1.00
2024-02-17T04:25:18.515Z,1.00
2024-02-17T04:25:50.391Z,1.00
2024-02-17T04:26:22.433Z,1.00
2024-02-17T04:26:54.394Z,1.00
2024-02-17T04:27:26.330Z,1.00
2024-02-17T04:27:58.765Z,1.00
2024-02-17T04:28:31.195Z,1.00
2024-02-17T04:29:03.123Z,1.00
2024-02-17T04:29:35.280Z,1.00
2024-02-17T04:30:07.999Z,1.00
2024-02-17T04:30:40.078Z,1.00
2024-02-17T04:31:12.128Z,1.00
2024-02-17T04:31:44.401Z,1.00
2024-02-17T04:32:16.305Z,1.00
2024-02-17T04:32:48.306Z,1.00
2024-02-17T04:33:20.492Z,1.00
2024-02-17T04:33:52.725Z,1.00
2024-02-17T04:34:24.865Z,1.00
2024-02-17T04:34:57.009Z,1.00
2024-02-17T04:35:29.152Z,1.00
2024-02-17T04:36:01.174Z,1.00
2024-02-17T04:36:33.164Z,1.00
2024-02-17T04:37:05.374Z,1.00
2024-02-17T04:37:37.374Z,1.00
2024-02-17T04:38:09.278Z,1.00
2024-02-17T04:38:41.949Z,1.00
2024-02-17T04:39:14.879Z,1.00
2024-02-17T04:39:46.905Z,1.00
2024-02-17T04:40:19.060Z,1.00
2024-02-17T04:40:51.156Z,1.00
2024-02-17T04:41:23.056Z,1.00
2024-02-17T04:41:56.112Z,1.00
2024-02-17T04:42:28.196Z,1.00
2024-02-17T04:43:00.162Z,1.00
2024-02-17T04:43:32.210Z,1.00
2024-02-17T04:44:04.922Z,1.00
2024-02-17T04:44:37.035Z,1.00
2024-02-17T04:45:10.841Z,1.00
2024-02-17T04:45:42.801Z,1.00
2024-02-17T04:46:15.172Z,1.00
2024-02-17T04:46:47.084Z,1.00
2024-02-17T04:47:19.042Z,1.00
2024-02-17T04:47:51.056Z,1.00
2024-02-17T04:48:23.063Z,1.00
2024-02-17T04:48:55.137Z,1.00
2024-02-17T04:49:27.156Z,1.00
2024-02-17T04:49:59.183Z,1.00
2024-02-17T04:50:31.146Z,1.00
2024-02-17T04:51:03.149Z,1.00
2024-02-17T04:51:36.322Z,1.00
2024-02-17T04:52:08.385Z,1.00
2024-02-17T04:52:40.320Z,1.00
2024-02-17T04:53:12.286Z,1.00
2024-02-17T04:53:44.231Z,1.00
2024-02-17T04:54:16.181Z,1.00
2024-02-17T04:54:48.157Z,1.00
2024-02-17T04:55:20.070Z,1.00
2024-02-17T04:55:52.152Z,1.00
2024-02-17T04:56:24.215Z,1.00
2024-02-17T04:56:56.112Z,1.00
2024-02-17T04:57:28.042Z,1.00
2024-02-17T04:58:00.179Z,1.00
2024-02-17T04:58:32.118Z,1.00
2024-02-17T04:59:04.378Z,1.00
2024-02-17T04:59:36.274Z,1.00
2024-02-17T05:00:10.129Z,1.00
2024-02-17T05:00:42.247Z,1.00
2024-02-17T05:01:14.472Z,1.00
2024-02-17T05:01:47.226Z,1.00
2024-02-17T05:02:19.177Z,1.00
2024-02-17T05:02:51.085Z,1.00
2024-02-17T05:03:23.399Z,1.00
2024-02-17T05:03:55.508Z,1.00
2024-02-17T05:04:27.628Z,1.00
2024-02-17T05:04:59.725Z,1.00
2024-02-17T05:05:31.731Z,1.00
2024-02-17T05:06:04.423Z,1.00
2024-02-17T05:06:36.381Z,1.00
2024-02-17T05:07:08.867Z,1.00
2024-02-17T05:07:40.830Z,1.00
2024-02-17T05:08:38.265Z,1.00
2024-02-17T05:09:11.321Z,1.00
2024-02-17T05:09:43.355Z,1.00
2024-02-17T05:10:15.430Z,1.00
2024-02-17T05:10:47.327Z,1.00
2024-02-17T05:11:19.224Z,1.00
2024-02-17T05:11:51.173Z,1.00
2024-02-17T05:12:23.257Z,1.00
2024-02-17T05:12:55.298Z,1.00
2024-02-17T05:13:27.444Z,1.00
2024-02-17T05:13:59.477Z,1.00
2024-02-17T05:14:31.498Z,1.00
2024-02-17T05:15:04.555Z,1.00
2024-02-17T05:15:36.760Z,1.00
2024-02-17T05:16:08.937Z,1.00
2024-02-17T05:16:40.846Z,1.00
2024-02-17T05:17:13.353Z,1.00
2024-02-17T05:17:45.730Z,1.00
2024-02-17T05:18:17.810Z,1.00
2024-02-17T05:18:50.010Z,1.00
2024-02-17T05:19:22.279Z,1.00
2024-02-17T05:19:54.319Z,1.00
2024-02-17T05:20:27.382Z,1.00
2024-02-17T05:20:59.300Z,1.00
2024-02-17T05:21:31.236Z,1.00
2024-02-17T05:22:03.149Z,1.00
2024-02-17T05:22:35.106Z,1.00
2024-02-17T05:23:07.717Z,1.00
2024-02-17T05:23:40.537Z,1.00
2024-02-17T05:24:12.669Z,1.00
2024-02-17T05:24:47.473Z,1.00
2024-02-17T05:25:22.574Z,1.00
2024-02-17T05:25:56.143Z,1.00
2024-02-17T05:26:37.849Z,1.00
2024-02-17T05:27:09.921Z,1.00
2024-02-17T05:27:42.124Z,1.00
2024-02-17T05:28:15.807Z,1.00
2024-02-17T05:28:47.688Z,1.00
2024-02-17T05:29:19.747Z,1.00
2024-02-17T05:29:51.713Z,1.00
2024-02-17T05:30:23.604Z,1.00
2024-02-17T05:30:56.300Z,1.00
2024-02-17T05:31:28.994Z,1.00
2024-02-17T05:32:04.126Z,1.00
2024-02-17T05:32:36.073Z,1.00
2024-02-17T05:33:08.945Z,1.00
2024-02-17T05:33:41.242Z,1.00
2024-02-17T05:34:13.456Z,1.00
2024-02-17T05:34:45.581Z,1.00
2024-02-17T05:35:17.814Z,1.00
2024-02-17T05:35:50.922Z,1.00
2024-02-17T05:36:55.586Z,1.00
2024-02-17T05:37:27.604Z,1.00
2024-02-17T05:38:27.351Z,1.00
2024-02-17T05:38:59.305Z,1.00
2024-02-17T05:39:32.906Z,1.00
2024-02-17T05:40:08.378Z,1.00
2024-02-17T05:40:40.428Z,1.00
2024-02-17T05:41:12.352Z,1.00
2024-02-17T05:41:44.557Z,1.00
2024-02-17T05:42:16.640Z,1.00
2024-02-17T05:42:48.675Z,1.00
2024-02-17T05:43:20.690Z,1.00
2024-02-17T05:43:54.086Z,1.00
2024-02-17T05:44:26.428Z,1.00
2024-02-17T05:44:58.470Z,1.00
2024-02-17T05:45:30.813Z,1.00
2024-02-17T05:46:02.880Z,1.00
2024-02-17T05:46:34.803Z,1.00
2024-02-17T05:47:06.785Z,1.00
2024-02-17T05:47:38.758Z,1.00
2024-02-17T05:48:11.327Z,1.00
2024-02-17T05:48:46.463Z,1.00
2024-02-17T05:49:21.352Z,1.00
2024-02-17T05:49:53.422Z,1.00
2024-02-17T05:50:25.833Z,1.00
2024-02-17T05:50:57.718Z,1.00
2024-02-17T05:51:29.838Z,1.00
2024-02-17T05:52:01.747Z,1.00
2024-02-17T05:52:34.282Z,1.00
2024-02-17T05:53:06.395Z,1.00
2024-02-17T05:53:38.452Z,1.00
2024-02-17T05:54:10.389Z,1.00
2024-02-17T05:54:42.386Z,1.00
2024-02-17T05:55:14.296Z,1.00
2024-02-17T05:55:46.355Z,1.00
2024-02-17T05:56:18.357Z,1.00
2024-02-17T05:56:50.674Z,1.00
2024-02-17T05:57:22.612Z,1.00
2024-02-17T05:57:55.216Z,1.00
2024-02-17T05:58:27.170Z,1.00
2024-02-17T05:58:59.123Z,1.00
2024-02-17T05:59:32.038Z,1.00
2024-02-17T06:00:05.370Z,1.00
2024-02-17T06:00:37.436Z,1.00
2024-02-17T06:01:09.789Z,1.00
2024-02-17T06:01:42.596Z,1.00
2024-02-17T06:02:14.587Z,1.00
2024-02-17T06:02:46.563Z,1.00
2024-02-17T06:03:19.083Z,1.00
2024-02-17T06:03:51.714Z,1.00
2024-02-17T06:04:23.862Z,1.00
2024-02-17T06:04:56.682Z,1.00
2024-02-17T06:05:30.303Z,1.00
2024-02-17T06:06:02.255Z,1.00
2024-02-17T06:06:34.926Z,1.00
2024-02-17T06:07:07.016Z,1.00
2024-02-17T06:07:39.128Z,1.00
2024-02-17T06:08:11.387Z,1.00
2024-02-17T06:08:52.329Z,1.00
2024-02-17T06:09:42.684Z,1.00
2024-02-17T06:10:14.931Z,1.00
2024-02-17T06:10:46.934Z,1.00
2024-02-17T06:11:19.011Z,1.00
2024-02-17T06:11:51.128Z,1.00
2024-02-17T06:12:23.026Z,1.00
2024-02-17T06:12:55.084Z,1.00
2024-02-17T06:13:27.047Z,1.00
2024-02-17T06:13:59.015Z,1.00
2024-02-17T06:14:30.963Z,1.00
2024-02-17T06:15:03.017Z,1.00
2024-02-17T06:15:35.909Z,1.00
2024-02-17T06:16:08.273Z,1.00
2024-02-17T06:16:40.331Z,1.00
2024-02-17T06:17:14.294Z,1.00
2024-02-17T06:17:47.990Z,1.00
2024-02-17T06:18:58.356Z,1.00
2024-02-17T06:19:49.173Z,1.00
2024-02-17T06:20:39.675Z,1.00
2024-02-17T06:21:12.374Z,1.00
2024-02-17T06:21:44.696Z,1.00
2024-02-17T06:22:16.659Z,1.00
2024-02-17T06:22:48.542Z,1.00
2024-02-17T06:23:20.486Z,1.00
2024-02-17T06:23:52.937Z,1.00
2024-02-17T06:24:24.908Z,1.00
2024-02-17T06:24:56.926Z,1.00
2024-02-17T06:25:28.939Z,1.00
2024-02-17T06:26:00.926Z,1.00
2024-02-17T06:26:35.594Z,1.00
2024-02-17T06:27:07.657Z,1.00
2024-02-17T06:27:39.749Z,1.00
2024-02-17T06:28:11.662Z,1.00
2024-02-17T06:28:43.533Z,1.00
2024-02-17T06:29:15.464Z,1.00
2024-02-17T06:29:47.563Z,1.00
2024-02-17T06:30:19.742Z,1.00
2024-02-17T06:30:51.985Z,1.00
2024-02-17T06:31:24.768Z,1.00
2024-02-17T06:31:56.731Z,1.00
2024-02-17T06:32:28.724Z,1.00
2024-02-17T06:33:01.214Z,1.00
2024-02-17T06:33:33.324Z,1.00
2024-02-17T06:34:05.741Z,1.00
2024-02-17T06:34:38.028Z,1.00
2024-02-17T06:35:11.169Z,1.00
2024-02-17T06:35:43.203Z,1.00
2024-02-17T06:36:15.425Z,1.00
2024-02-17T06:36:47.409Z,1.00
2024-02-17T06:37:19.326Z,1.00
2024-02-17T06:37:51.288Z,1.00
2024-02-17T06:38:25.175Z,1.00
2024-02-17T06:38:57.309Z,1.00
2024-02-17T06:39:29.244Z,1.00
2024-02-17T06:40:01.876Z,1.00
2024-02-17T06:40:33.934Z,1.00
2024-02-17T06:41:06.296Z,1.00
2024-02-17T06:41:38.197Z,1.00
2024-02-17T06:42:10.164Z,1.00
2024-02-17T06:42:42.213Z,1.00
2024-02-17T06:43:18.124Z,1.00
2024-02-17T06:43:51.850Z,1.00
2024-02-17T06:44:26.925Z,1.00
2024-02-17T06:44:58.897Z,1.00
2024-02-17T06:45:31.153Z,1.00
2024-02-17T06:46:04.140Z,1.00
2024-02-17T06:46:36.078Z,1.00
2024-02-17T06:47:08.165Z,1.00
2024-02-17T06:47:40.132Z,1.00
2024-02-17T06:48:12.764Z,1.00
2024-02-17T06:48:45.232Z,1.00
2024-02-17T06:49:17.477Z,1.00
2024-02-17T06:49:49.676Z,1.00
2024-02-17T06:50:25.318Z,1.00
2024-02-17T06:50:57.924Z,1.00
2024-02-17T06:51:29.838Z,1.00
2024-02-17T06:52:01.920Z,1.00
2024-02-17T06:52:33.929Z,1.00
2024-02-17T06:53:05.928Z,1.00
2024-02-17T06:53:38.322Z,1.00
2024-02-17T06:54:10.306Z,1.00
2024-02-17T06:54:42.787Z,1.00
2024-02-17T06:55:14.797Z,1.00
2024-02-17T06:55:46.990Z,1.00
2024-02-17T06:56:18.942Z,1.00
2024-02-17T06:56:51.308Z,1.00
2024-02-17T06:57:23.287Z,1.00
2024-02-17T06:57:55.293Z,1.00
2024-02-17T06:58:27.293Z,1.00
2024-02-17T06:58:59.156Z,1.00
2024-02-17T06:59:31.038Z,1.00
2024-02-17T07:00:03.278Z,1.00
2024-02-17T07:00:35.331Z,1.00
2024-02-17T07:01:07.351Z,1.00
2024-02-17T07:01:39.352Z,1.00
2024-02-17T07:02:11.371Z,1.00
2024-02-17T07:02:43.252Z,1.00
2024-02-17T07:03:16.381Z,1.00
2024-02-17T07:03:48.810Z,1.00
2024-02-17T07:04:20.928Z,1.00
2024-02-17T07:04:54.267Z,1.00
2024-02-17T07:05:26.329Z,1.00
2024-02-17T07:05:58.324Z,1.00
2024-02-17T07:06:30.393Z,1.00
2024-02-17T07:07:03.396Z,1.00
2024-02-17T07:07:35.253Z,1.00
2024-02-17T07:08:11.474Z,1.00
2024-02-17T07:09:40.623Z,1.00
2024-02-17T07:10:12.641Z,1.00
2024-02-17T07:10:44.886Z,1.00
2024-02-17T07:11:17.050Z,1.00
2024-02-17T07:11:49.039Z,1.00
2024-02-17T07:12:21.016Z,1.00
2024-02-17T07:12:53.041Z,1.00
2024-02-17T07:13:25.182Z,1.00
2024-02-17T07:13:57.118Z,1.00
2024-02-17T07:14:29.032Z,1.00
2024-02-17T07:15:00.891Z,1.00
2024-02-17T07:15:32.841Z,1.00
2024-02-17T07:16:05.134Z,1.00
2024-02-17T07:16:37.106Z,1.00
2024-02-17T07:17:09.171Z,1.00
2024-02-17T07:17:41.234Z,1.00
2024-02-17T07:18:16.115Z,1.00
2024-02-17T07:18:48.526Z,1.00